createdAt,value
2017-01-03T00:00:46.051Z,0.85
2017-01-03T00:01:46.047Z,0.89
2017-01-03T00:02:46.463Z,0.84
2017-01-03T00:03:46.459Z,0.84
2017-01-03T00:04:46.439Z,0.91
2017-01-03T00:05:46.444Z,0.94
2017-01-03T00:06:46.035Z,0.94
2017-01-03T00:07:46.023Z,0.94
2017-01-03T00:08:46.020Z,0.89
2017-01-03T00:09:46.427Z,0.89
2017-01-03T00:10:46.432Z,0.86
2017-01-03T00:11:45.596Z,0.92
2017-01-03T00:12:46.024Z,0.95
2017-01-03T00:13:45.996Z,0.89
2017-01-03T00:14:46.000Z,0.92
2017-01-03T00:15:46.392Z,0.94
2017-01-03T00:16:45.980Z,0.95
2017-01-03T00:17:45.988Z,0.95
2017-01-03T00:18:45.984Z,0.94
2017-01-03T00:19:46.372Z,0.85
2017-01-03T00:20:45.972Z,0.85
2017-01-03T00:21:45.965Z,0.89
2017-01-03T00:22:45.960Z,0.7
2017-01-03T00:23:46.365Z,0.76
2017-01-03T00:24:45.952Z,0.71
2017-01-03T00:25:45.945Z,0.71
2017-01-03T00:26:45.532Z,0.7
2017-01-03T00:27:46.345Z,0.68
2017-01-03T00:28:46.344Z,0.76
2017-01-03T00:29:46.345Z,0.67
2017-01-03T00:30:45.921Z,0.7
2017-01-03T00:31:45.913Z,0.68
2017-01-03T00:32:45.921Z,0.66
2017-01-03T00:33:45.909Z,0.66
2017-01-03T00:34:46.309Z,0.63
2017-01-03T00:35:46.313Z,0.67
2017-01-03T00:36:45.897Z,0.64
2017-01-03T00:37:45.485Z,0.71
2017-01-03T00:38:46.301Z,0.67
2017-01-03T00:39:45.886Z,0.7
2017-01-03T00:40:46.290Z,0.71
2017-01-03T00:41:45.878Z,0.74
2017-01-03T00:42:46.278Z,0.7
2017-01-03T00:43:46.278Z,0.7
2017-01-03T00:44:46.270Z,0.66
2017-01-03T00:45:46.286Z,0.68
2017-01-03T00:46:45.854Z,0.66
2017-01-03T00:47:45.846Z,0.67
2017-01-03T00:48:45.442Z,0.7
2017-01-03T00:49:45.842Z,0.7
2017-01-03T00:50:45.830Z,0.77
2017-01-03T00:51:45.830Z,0.73
2017-01-03T00:52:45.826Z,0.74
2017-01-03T00:53:46.243Z,0.73
2017-01-03T00:54:46.226Z,0.84
2017-01-03T00:55:46.227Z,0.85
2017-01-03T00:56:45.395Z,0.84
2017-01-03T00:57:46.211Z,0.77
2017-01-03T00:58:46.215Z,0.85
2017-01-03T00:59:46.203Z,0.91
2017-01-03T01:00:45.379Z,0.78
2017-01-03T01:01:45.779Z,0.77
2017-01-03T01:02:46.195Z,0.7
2017-01-03T01:03:45.775Z,0.84
2017-01-03T01:04:45.775Z,0.88
2017-01-03T01:05:45.355Z,0.77
2017-01-03T01:06:45.771Z,0.84
2017-01-03T01:07:45.766Z,0.74
2017-01-03T01:08:45.752Z,0.73
2017-01-03T01:09:45.747Z,0.73
2017-01-03T01:10:46.151Z,0.82
2017-01-03T01:11:46.155Z,0.81
2017-01-03T01:12:46.151Z,0.7
2017-01-03T01:13:46.148Z,0.82
2017-01-03T01:14:45.320Z,0.84
2017-01-03T01:15:45.736Z,0.88
2017-01-03T01:16:46.136Z,0.7
2017-01-03T01:17:46.176Z,0.89
2017-01-03T01:18:45.727Z,0.81
2017-01-03T01:19:45.292Z,0.86
2017-01-03T01:20:45.296Z,0.92
2017-01-03T01:21:46.108Z,0.85
2017-01-03T01:22:45.288Z,0.88
2017-01-03T01:23:45.684Z,0.94
2017-01-03T01:24:45.716Z,0.94
2017-01-03T01:25:46.088Z,0.85
2017-01-03T01:26:46.088Z,0.85
2017-01-03T01:27:45.680Z,0.92
2017-01-03T01:28:45.668Z,0.88
2017-01-03T01:29:45.656Z,0.85
2017-01-03T01:30:46.068Z,0.88
2017-01-03T01:31:45.652Z,0.89
2017-01-03T01:32:45.651Z,0.89
2017-01-03T01:33:45.644Z,0.88
2017-01-03T01:34:46.056Z,0.91
2017-01-03T01:35:46.052Z,0.91
2017-01-03T01:36:45.632Z,0.94
2017-01-03T01:37:45.628Z,0.91
2017-01-03T01:38:45.620Z,1.02
2017-01-03T01:39:45.620Z,0.99
2017-01-03T01:40:46.020Z,1.02
2017-01-03T01:41:45.609Z,0.99
2017-01-03T01:42:46.012Z,1.03
2017-01-03T01:43:46.016Z,1.02
2017-01-03T01:44:45.176Z,1.06
2017-01-03T01:45:45.992Z,1.03
2017-01-03T01:46:45.584Z,1.06
2017-01-03T01:47:45.988Z,1.04
2017-01-03T01:48:45.576Z,1.07
2017-01-03T01:49:45.992Z,1.1
2017-01-03T01:50:45.984Z,1.04
2017-01-03T01:51:45.564Z,1.07
2017-01-03T01:52:45.555Z,1.09
2017-01-03T01:53:45.960Z,1.06
2017-01-03T01:54:45.960Z,1.07
2017-01-03T01:55:45.988Z,1.18
2017-01-03T01:56:45.124Z,1.09
2017-01-03T01:57:45.944Z,1.09
2017-01-03T01:58:45.528Z,1.06
2017-01-03T01:59:45.532Z,1.12
2017-01-03T02:00:45.937Z,1.18
2017-01-03T02:01:45.932Z,1.13
2017-01-03T02:02:45.923Z,1.1
2017-01-03T02:03:45.920Z,1.1
2017-01-03T02:04:45.916Z,1.04
2017-01-03T02:05:45.504Z,1.1
2017-01-03T02:06:45.908Z,1.16
2017-01-03T02:07:45.489Z,1.04
2017-01-03T02:08:45.908Z,1.16
2017-01-03T02:09:45.893Z,1.03
2017-01-03T02:10:45.473Z,1.04
2017-01-03T02:11:45.881Z,1.07
2017-01-03T02:12:45.472Z,1
2017-01-03T02:13:45.045Z,1.06
2017-01-03T02:14:45.869Z,1.07
2017-01-03T02:15:45.461Z,0.99
2017-01-03T02:16:45.861Z,0.99
2017-01-03T02:17:45.857Z,1.04
2017-01-03T02:18:45.449Z,1.06
2017-01-03T02:19:45.873Z,0.91
2017-01-03T02:20:45.845Z,0.95
2017-01-03T02:21:45.013Z,0.95
2017-01-03T02:22:45.837Z,0.99
2017-01-03T02:23:45.855Z,1
2017-01-03T02:24:45.414Z,1.07
2017-01-03T02:25:45.829Z,1
2017-01-03T02:26:45.402Z,0.92
2017-01-03T02:27:45.813Z,0.84
2017-01-03T02:28:45.809Z,0.86
2017-01-03T02:29:45.825Z,0.89
2017-01-03T02:30:44.982Z,0.94
2017-01-03T02:31:45.798Z,0.91
2017-01-03T02:32:45.790Z,0.86
2017-01-03T02:33:45.790Z,0.92
2017-01-03T02:34:45.778Z,0.78
2017-01-03T02:35:44.962Z,0.88
2017-01-03T02:36:45.362Z,0.71
2017-01-03T02:37:45.970Z,0.85
2017-01-03T02:38:45.358Z,0.84
2017-01-03T02:39:45.343Z,0.73
2017-01-03T02:40:45.343Z,0.73
2017-01-03T02:41:45.342Z,0.73
2017-01-03T02:42:45.334Z,0.76
2017-01-03T02:43:45.326Z,0.7
2017-01-03T02:44:45.322Z,0.63
2017-01-03T02:45:45.727Z,0.64
2017-01-03T02:46:45.319Z,0.61
2017-01-03T02:47:45.322Z,0.67
2017-01-03T02:48:45.719Z,0.63
2017-01-03T02:49:45.719Z,0.58
2017-01-03T02:50:45.712Z,0.49
2017-01-03T02:51:44.892Z,0.55
2017-01-03T02:52:45.699Z,0.52
2017-01-03T02:53:45.295Z,0.51
2017-01-03T02:54:45.688Z,0.44
2017-01-03T02:55:45.692Z,0.39
2017-01-03T02:56:45.680Z,0.4
2017-01-03T02:57:45.688Z,0.3
2017-01-03T02:58:45.679Z,0.26
2017-01-03T02:59:45.248Z,0.26
2017-01-03T03:00:45.256Z,0.19
2017-01-03T03:01:45.652Z,0.16
2017-01-03T03:02:45.660Z,0.02
2017-01-03T03:03:45.244Z,-0.02
2017-01-03T03:04:44.828Z,-0.03
2017-01-03T03:05:45.652Z,0.05
2017-01-03T03:06:45.640Z,0
2017-01-03T03:07:45.220Z,-0.03
2017-01-03T03:08:45.216Z,-0.05
2017-01-03T03:09:45.208Z,-0.07
2017-01-03T03:10:45.205Z,-0.03
2017-01-03T03:11:45.625Z,-0.18
2017-01-03T03:12:44.795Z,-0.12
2017-01-03T03:13:45.617Z,-0.07
2017-01-03T03:14:45.605Z,-0.12
2017-01-03T03:15:45.600Z,-0.12
2017-01-03T03:16:45.589Z,-0.21
2017-01-03T03:17:45.177Z,-0.15
2017-01-03T03:18:45.177Z,-0.07
2017-01-03T03:19:45.173Z,-0.03
2017-01-03T03:20:45.569Z,-0.1
2017-01-03T03:21:45.565Z,-0.09
2017-01-03T03:22:45.161Z,-0.18
2017-01-03T03:23:45.154Z,-0.17
2017-01-03T03:24:45.143Z,-0.2
2017-01-03T03:25:45.553Z,-0.15
2017-01-03T03:26:45.142Z,-0.13
2017-01-03T03:27:45.142Z,-0.13
2017-01-03T03:28:45.538Z,-0.1
2017-01-03T03:29:44.710Z,-0.12
2017-01-03T03:30:45.122Z,-0.03
2017-01-03T03:31:45.110Z,-0.13
2017-01-03T03:32:44.706Z,-0.05
2017-01-03T03:33:45.107Z,-0.12
2017-01-03T03:34:45.514Z,-0.1
2017-01-03T03:35:45.518Z,-0.2
2017-01-03T03:36:45.090Z,-0.06
2017-01-03T03:37:45.502Z,-0.03
2017-01-03T03:38:45.491Z,-0.17
2017-01-03T03:39:45.082Z,-0.15
2017-01-03T03:40:45.071Z,-0.06
2017-01-03T03:41:45.487Z,-0.07
2017-01-03T03:42:45.483Z,-0.12
2017-01-03T03:43:45.502Z,-0.15
2017-01-03T03:44:45.059Z,-0.18
2017-01-03T03:45:45.055Z,-0.12
2017-01-03T03:46:45.455Z,-0.1
2017-01-03T03:47:45.047Z,-0.18
2017-01-03T03:48:45.451Z,-0.17
2017-01-03T03:49:45.043Z,-0.12
2017-01-03T03:50:45.440Z,-0.2
2017-01-03T03:51:45.440Z,-0.12
2017-01-03T03:52:45.435Z,-0.13
2017-01-03T03:53:45.428Z,-0.15
2017-01-03T03:54:45.412Z,-0.1
2017-01-03T03:55:45.419Z,-0.12
2017-01-03T03:56:45.424Z,-0.1
2017-01-03T03:57:44.584Z,-0.18
2017-01-03T03:58:45.400Z,-0.17
2017-01-03T03:59:44.992Z,-0.12
2017-01-03T04:00:44.575Z,-0.21
2017-01-03T04:01:45.388Z,-0.17
2017-01-03T04:02:45.392Z,-0.2
2017-01-03T04:03:44.968Z,-0.17
2017-01-03T04:04:45.380Z,-0.15
2017-01-03T04:05:44.968Z,-0.12
2017-01-03T04:06:44.948Z,-0.15
2017-01-03T04:07:45.364Z,-0.1
2017-01-03T04:08:44.952Z,-0.2
2017-01-03T04:09:44.944Z,-0.13
2017-01-03T04:10:45.357Z,-0.23
2017-01-03T04:11:44.521Z,-0.23
2017-01-03T04:12:44.936Z,-0.23
2017-01-03T04:13:45.336Z,-0.38
2017-01-03T04:14:44.517Z,-0.26
2017-01-03T04:15:45.325Z,-0.33
2017-01-03T04:16:45.328Z,-0.38
2017-01-03T04:17:44.897Z,-0.33
2017-01-03T04:18:44.897Z,-0.38
2017-01-03T04:19:45.317Z,-0.36
2017-01-03T04:20:45.305Z,-0.44
2017-01-03T04:21:44.893Z,-0.59
2017-01-03T04:22:44.888Z,-0.6
2017-01-03T04:23:45.293Z,-0.6
2017-01-03T04:24:44.873Z,-0.7
2017-01-03T04:25:44.877Z,-0.74
2017-01-03T04:26:45.277Z,-0.81
2017-01-03T04:27:44.869Z,-0.84
2017-01-03T04:28:45.265Z,-0.91
2017-01-03T04:29:45.269Z,-0.99
2017-01-03T04:30:45.257Z,-1.07
2017-01-03T04:31:45.253Z,-1.07
2017-01-03T04:32:44.837Z,-1.17
2017-01-03T04:33:45.249Z,-1.27
2017-01-03T04:34:44.417Z,-1.38
2017-01-03T04:35:45.237Z,-1.48
2017-01-03T04:36:44.817Z,-1.51
2017-01-03T04:37:44.813Z,-1.57
2017-01-03T04:38:45.222Z,-1.68
2017-01-03T04:39:45.225Z,-1.66
2017-01-03T04:40:45.217Z,-1.66
2017-01-03T04:41:45.209Z,-1.76
2017-01-03T04:42:44.786Z,-1.71
2017-01-03T04:43:45.201Z,-1.82
2017-01-03T04:44:44.373Z,-1.89
2017-01-03T04:45:44.778Z,-1.9
2017-01-03T04:46:44.769Z,-1.76
2017-01-03T04:47:45.181Z,-1.89
2017-01-03T04:48:45.177Z,-1.89
2017-01-03T04:49:45.166Z,-1.94
2017-01-03T04:50:44.753Z,-1.92
2017-01-03T04:51:45.165Z,-1.99
2017-01-03T04:52:44.749Z,-2
2017-01-03T04:53:44.741Z,-1.92
2017-01-03T04:54:44.741Z,-1.94
2017-01-03T04:55:44.737Z,-2.04
2017-01-03T04:56:45.142Z,-2.05
2017-01-03T04:57:44.330Z,-2.04
2017-01-03T04:58:45.129Z,-1.96
2017-01-03T04:59:44.713Z,-1.99
2017-01-03T05:00:45.122Z,-1.99
2017-01-03T05:01:45.114Z,-2.07
2017-01-03T05:02:44.706Z,-2.07
2017-01-03T05:03:45.106Z,-2.14
2017-01-03T05:04:45.102Z,-2.2
2017-01-03T05:05:45.094Z,-2.28
2017-01-03T05:06:44.687Z,-2.29
2017-01-03T05:07:44.673Z,-2.32
2017-01-03T05:08:44.669Z,-2.45
2017-01-03T05:09:44.662Z,-2.55
2017-01-03T05:10:45.074Z,-2.58
2017-01-03T05:11:45.066Z,-2.58
2017-01-03T05:12:44.655Z,-2.7
2017-01-03T05:13:44.637Z,-2.68
2017-01-03T05:14:44.646Z,-2.65
2017-01-03T05:15:44.224Z,-2.55
2017-01-03T05:16:45.042Z,-2.63
2017-01-03T05:17:44.637Z,-2.73
2017-01-03T05:18:44.618Z,-2.75
2017-01-03T05:19:44.613Z,-2.7
2017-01-03T05:20:45.025Z,-2.81
2017-01-03T05:21:45.017Z,-2.86
2017-01-03T05:22:44.593Z,-2.89
2017-01-03T05:23:45.001Z,-2.91
2017-01-03T05:24:44.597Z,-2.94
2017-01-03T05:25:45.005Z,-3.02
2017-01-03T05:26:44.604Z,-3.04
2017-01-03T05:27:44.577Z,-3.02
2017-01-03T05:28:44.569Z,-2.94
2017-01-03T05:29:44.156Z,-2.87
2017-01-03T05:30:44.556Z,-3.01
2017-01-03T05:31:44.144Z,-2.98
2017-01-03T05:32:44.552Z,-3.05
2017-01-03T05:33:44.544Z,-3.01
2017-01-03T05:34:44.952Z,-3.02
2017-01-03T05:35:44.951Z,-3.01
2017-01-03T05:36:44.532Z,-3.02
2017-01-03T05:37:44.524Z,-2.94
2017-01-03T05:38:44.520Z,-3.01
2017-01-03T05:39:44.928Z,-3.11
2017-01-03T05:40:44.092Z,-3.08
2017-01-03T05:41:44.916Z,-3.22
2017-01-03T05:42:44.500Z,-3.26
2017-01-03T05:43:44.903Z,-3.32
2017-01-03T05:44:44.904Z,-3.29
2017-01-03T05:45:44.492Z,-3.41
2017-01-03T05:46:44.493Z,-3.44
2017-01-03T05:47:44.900Z,-3.46
2017-01-03T05:48:44.889Z,-3.48
2017-01-03T05:49:44.472Z,-3.51
2017-01-03T05:50:44.900Z,-3.5
2017-01-03T05:51:44.877Z,-3.43
2017-01-03T05:52:44.456Z,-3.47
2017-01-03T05:53:45.116Z,-3.51
2017-01-03T05:54:44.448Z,-3.53
2017-01-03T05:55:44.852Z,-3.51
2017-01-03T05:56:44.440Z,-3.53
2017-01-03T05:57:44.872Z,-3.5
2017-01-03T05:58:44.424Z,-3.53
2017-01-03T05:59:44.412Z,-3.46
2017-01-03T06:00:44.000Z,-3.56
2017-01-03T06:01:44.416Z,-3.5
2017-01-03T06:02:44.820Z,-3.55
2017-01-03T06:03:44.408Z,-3.47
2017-01-03T06:04:44.804Z,-3.59
2017-01-03T06:05:44.416Z,-3.5
2017-01-03T06:06:44.388Z,-3.53
2017-01-03T06:07:44.828Z,-3.59
2017-01-03T06:08:44.372Z,-3.53
2017-01-03T06:09:44.772Z,-3.64
2017-01-03T06:10:44.776Z,-3.58
2017-01-03T06:11:44.764Z,-3.64
2017-01-03T06:12:44.348Z,-3.65
2017-01-03T06:13:44.352Z,-3.69
2017-01-03T06:14:44.752Z,-3.83
2017-01-03T06:15:44.368Z,-3.81
2017-01-03T06:16:44.748Z,-3.9
2017-01-03T06:17:44.336Z,-4.01
2017-01-03T06:18:44.328Z,-4.04
2017-01-03T06:19:44.732Z,-4.01
2017-01-03T06:20:44.316Z,-4.16
2017-01-03T06:21:44.724Z,-4.14
2017-01-03T06:22:44.716Z,-4.2
2017-01-03T06:23:44.328Z,-4.2
2017-01-03T06:24:43.882Z,-4.23
2017-01-03T06:25:44.280Z,-4.26
2017-01-03T06:26:44.284Z,-4.27
2017-01-03T06:27:44.276Z,-4.33
2017-01-03T06:28:44.264Z,-4.38
2017-01-03T06:29:44.680Z,-4.33
2017-01-03T06:30:44.676Z,-4.4
2017-01-03T06:31:43.844Z,-4.37
2017-01-03T06:32:44.661Z,-4.38
2017-01-03T06:33:44.661Z,-4.42
2017-01-03T06:34:44.651Z,-4.44
2017-01-03T06:35:44.642Z,-4.49
2017-01-03T06:36:44.649Z,-4.53
2017-01-03T06:37:44.637Z,-4.61
2017-01-03T06:38:44.225Z,-4.67
2017-01-03T06:39:44.213Z,-4.7
2017-01-03T06:40:44.625Z,-4.62
2017-01-03T06:41:44.617Z,-4.73
2017-01-03T06:42:44.609Z,-4.65
2017-01-03T06:43:44.201Z,-4.65
2017-01-03T06:44:44.189Z,-4.59
2017-01-03T06:45:44.189Z,-4.52
2017-01-03T06:46:44.621Z,-4.45
2017-01-03T06:47:44.182Z,-4.38
2017-01-03T06:48:44.584Z,-4.4
2017-01-03T06:49:44.161Z,-4.37
2017-01-03T06:50:43.754Z,-4.45
2017-01-03T06:51:44.159Z,-4.45
2017-01-03T06:52:44.557Z,-4.55
2017-01-03T06:53:44.553Z,-4.61
2017-01-03T06:54:44.546Z,-4.65
2017-01-03T06:55:44.570Z,-4.63
2017-01-03T06:56:44.133Z,-4.79
2017-01-03T06:57:44.538Z,-4.8
2017-01-03T06:58:44.542Z,-4.79
2017-01-03T06:59:44.534Z,-4.73
2017-01-03T07:00:44.110Z,-4.71
2017-01-03T07:01:44.542Z,-4.63
2017-01-03T07:02:44.511Z,-4.65
2017-01-03T07:03:44.502Z,-4.73
2017-01-03T07:04:44.506Z,-4.59
2017-01-03T07:05:44.490Z,-4.59
2017-01-03T07:06:44.490Z,-4.55
2017-01-03T07:07:44.074Z,-4.41
2017-01-03T07:08:44.498Z,-4.41
2017-01-03T07:09:44.474Z,-4.38
2017-01-03T07:10:44.466Z,-4.27
2017-01-03T07:11:44.462Z,-4.19
2017-01-03T07:12:44.046Z,-4.2
2017-01-03T07:13:44.039Z,-3.99
2017-01-03T07:14:44.442Z,-4.06
2017-01-03T07:15:44.435Z,-3.91
2017-01-03T07:16:44.467Z,-3.88
2017-01-03T07:17:44.427Z,-3.8
2017-01-03T07:18:44.423Z,-3.74
2017-01-03T07:19:44.011Z,-3.74
2017-01-03T07:20:44.407Z,-3.65
2017-01-03T07:21:44.007Z,-3.59
2017-01-03T07:22:43.995Z,-3.5
2017-01-03T07:23:44.399Z,-3.44
2017-01-03T07:24:43.979Z,-3.51
2017-01-03T07:25:44.403Z,-3.4
2017-01-03T07:26:44.391Z,-3.33
2017-01-03T07:27:44.379Z,-3.33
2017-01-03T07:28:44.375Z,-3.27
2017-01-03T07:29:44.371Z,-3.3
2017-01-03T07:30:44.359Z,-3.29
2017-01-03T07:31:43.953Z,-3.27
2017-01-03T07:32:44.351Z,-3.3
2017-01-03T07:33:44.352Z,-3.48
2017-01-03T07:34:44.340Z,-3.37
2017-01-03T07:35:44.332Z,-3.51
2017-01-03T07:36:44.335Z,-3.51
2017-01-03T07:37:44.320Z,-3.5
2017-01-03T07:38:44.324Z,-3.5
2017-01-03T07:39:44.316Z,-3.46
2017-01-03T07:40:44.316Z,-3.59
2017-01-03T07:41:43.892Z,-3.47
2017-01-03T07:42:44.304Z,-3.59
2017-01-03T07:43:44.300Z,-3.56
2017-01-03T07:44:43.880Z,-3.59
2017-01-03T07:45:44.280Z,-3.58
2017-01-03T07:46:43.872Z,-3.61
2017-01-03T07:47:43.857Z,-3.66
2017-01-03T07:48:44.272Z,-3.71
2017-01-03T07:49:44.272Z,-3.75
2017-01-03T07:50:43.840Z,-3.74
2017-01-03T07:51:44.257Z,-3.8
2017-01-03T07:52:43.848Z,-3.87
2017-01-03T07:53:44.248Z,-3.83
2017-01-03T07:54:43.824Z,-3.9
2017-01-03T07:55:44.235Z,-3.85
2017-01-03T07:56:43.820Z,-3.94
2017-01-03T07:57:43.809Z,-4.02
2017-01-03T07:58:43.804Z,-3.87
2017-01-03T07:59:43.801Z,-3.95
2017-01-03T08:00:44.213Z,-3.88
2017-01-03T08:01:44.205Z,-3.94
2017-01-03T08:02:43.784Z,-3.9
2017-01-03T08:03:44.196Z,-3.84
2017-01-03T08:04:44.177Z,-3.83
2017-01-03T08:05:43.773Z,-3.69
2017-01-03T08:06:43.766Z,-3.75
2017-01-03T08:07:44.173Z,-3.59
2017-01-03T08:08:44.169Z,-3.55
2017-01-03T08:09:44.161Z,-3.55
2017-01-03T08:10:43.337Z,-3.48
2017-01-03T08:11:44.153Z,-3.32
2017-01-03T08:12:44.149Z,-3.36
2017-01-03T08:13:44.145Z,-3.25
2017-01-03T08:14:43.729Z,-3.29
2017-01-03T08:15:43.721Z,-3.33
2017-01-03T08:16:44.125Z,-3.37
2017-01-03T08:17:44.125Z,-3.41
2017-01-03T08:18:43.913Z,-3.41
2017-01-03T08:19:43.705Z,-3.38
2017-01-03T08:20:43.689Z,-3.5
2017-01-03T08:21:44.105Z,-3.56
2017-01-03T08:22:43.691Z,-3.48
2017-01-03T08:23:43.269Z,-3.4
2017-01-03T08:24:44.089Z,-3.41
2017-01-03T08:25:44.185Z,-3.47
2017-01-03T08:26:44.078Z,-3.44
2017-01-03T08:27:44.066Z,-3.38
2017-01-03T08:28:44.066Z,-3.32
2017-01-03T08:29:44.058Z,-3.43
2017-01-03T08:30:43.649Z,-3.4
2017-01-03T08:31:43.646Z,-3.32
2017-01-03T08:32:43.637Z,-3.38
2017-01-03T08:33:44.041Z,-3.43
2017-01-03T08:34:43.621Z,-3.33
2017-01-03T08:35:44.034Z,-3.33
2017-01-03T08:36:43.618Z,-3.46
2017-01-03T08:37:44.021Z,-3.43
2017-01-03T08:38:44.023Z,-3.47
2017-01-03T08:39:44.013Z,-3.5
2017-01-03T08:40:43.589Z,-3.51
2017-01-03T08:41:43.594Z,-3.48
2017-01-03T08:42:44.002Z,-3.47
2017-01-03T08:43:43.985Z,-3.43
2017-01-03T08:44:43.582Z,-3.46
2017-01-03T08:45:43.981Z,-3.44
2017-01-03T08:46:43.993Z,-3.5
2017-01-03T08:47:43.554Z,-3.46
2017-01-03T08:48:43.966Z,-3.37
2017-01-03T08:49:43.558Z,-3.43
2017-01-03T08:50:43.954Z,-3.4
2017-01-03T08:51:43.957Z,-3.4
2017-01-03T08:52:43.537Z,-3.46
2017-01-03T08:53:43.541Z,-3.44
2017-01-03T08:54:43.118Z,-3.38
2017-01-03T08:55:43.526Z,-3.41
2017-01-03T08:56:43.929Z,-3.36
2017-01-03T08:57:43.925Z,-3.29
2017-01-03T08:58:43.506Z,-3.26
2017-01-03T08:59:43.922Z,-3.2
2017-01-03T09:00:43.506Z,-3.09
2017-01-03T09:01:43.906Z,-2.98
2017-01-03T09:02:43.897Z,-3.02
2017-01-03T09:03:43.490Z,-2.96
2017-01-03T09:04:43.893Z,-3.07
2017-01-03T09:05:43.473Z,-3.04
2017-01-03T09:06:43.057Z,-2.96
2017-01-03T09:07:43.877Z,-3.07
2017-01-03T09:08:43.457Z,-2.91
2017-01-03T09:09:43.868Z,-2.98
2017-01-03T09:10:43.448Z,-2.84
2017-01-03T09:11:43.860Z,-2.81
2017-01-03T09:12:43.852Z,-2.7
2017-01-03T09:13:43.844Z,-2.69
2017-01-03T09:14:43.424Z,-2.62
2017-01-03T09:15:43.840Z,-2.58
2017-01-03T09:16:43.428Z,-2.54
2017-01-03T09:17:43.835Z,-2.39
2017-01-03T09:18:43.823Z,-2.34
2017-01-03T09:19:43.403Z,-2.2
2017-01-03T09:20:43.811Z,-2.26
2017-01-03T09:21:43.803Z,-2.11
2017-01-03T09:22:43.803Z,-2.08
2017-01-03T09:23:43.794Z,-1.96
2017-01-03T09:24:43.794Z,-1.89
2017-01-03T09:25:43.786Z,-1.81
2017-01-03T09:26:43.370Z,-1.72
2017-01-03T09:27:43.786Z,-1.56
2017-01-03T09:28:43.774Z,-1.64
2017-01-03T09:29:43.774Z,-1.5
2017-01-03T09:30:43.349Z,-1.5
2017-01-03T09:31:43.766Z,-1.51
2017-01-03T09:32:43.337Z,-1.45
2017-01-03T09:33:43.333Z,-1.39
2017-01-03T09:34:43.329Z,-1.4
2017-01-03T09:35:43.741Z,-1.19
2017-01-03T09:36:43.736Z,-1.19
2017-01-03T09:37:43.725Z,-1.11
2017-01-03T09:38:43.308Z,-1.14
2017-01-03T09:39:43.312Z,-1.14
2017-01-03T09:40:43.720Z,-1.25
2017-01-03T09:41:43.297Z,-1.25
2017-01-03T09:42:43.288Z,-1.27
2017-01-03T09:43:43.288Z,-1.32
2017-01-03T09:44:42.876Z,-1.22
2017-01-03T09:45:43.692Z,-1.24
2017-01-03T09:46:43.300Z,-1.21
2017-01-03T09:47:43.276Z,-1.22
2017-01-03T09:48:43.672Z,-1.17
2017-01-03T09:49:43.663Z,-1.09
2017-01-03T09:50:43.252Z,-0.97
2017-01-03T09:51:43.247Z,-0.93
2017-01-03T09:52:43.251Z,-0.91
2017-01-03T09:53:43.243Z,-0.96
2017-01-03T09:54:43.235Z,-0.75
2017-01-03T09:55:43.647Z,-0.74
2017-01-03T09:56:43.638Z,-0.72
2017-01-03T09:57:43.219Z,-0.62
2017-01-03T09:58:43.627Z,-0.62
2017-01-03T09:59:43.210Z,-0.62
2017-01-03T10:00:43.619Z,-0.59
2017-01-03T10:01:43.616Z,-0.6
2017-01-03T10:02:43.199Z,-0.46
2017-01-03T10:03:43.195Z,-0.54
2017-01-03T10:04:43.598Z,-0.45
2017-01-03T10:05:43.595Z,-0.54
2017-01-03T10:06:43.183Z,-0.46
2017-01-03T10:07:43.182Z,-0.51
2017-01-03T10:08:43.583Z,-0.42
2017-01-03T10:09:43.579Z,-0.45
2017-01-03T10:10:43.575Z,-0.28
2017-01-03T10:11:43.155Z,-0.38
2017-01-03T10:12:43.159Z,-0.38
2017-01-03T10:13:43.146Z,-0.41
2017-01-03T10:14:43.145Z,-0.35
2017-01-03T10:15:43.551Z,-0.33
2017-01-03T10:16:43.138Z,-0.41
2017-01-03T10:17:43.543Z,-0.31
2017-01-03T10:18:43.539Z,-0.26
2017-01-03T10:19:43.539Z,-0.35
2017-01-03T10:20:43.535Z,-0.28
2017-01-03T10:21:43.118Z,-0.21
2017-01-03T10:22:43.114Z,-0.15
2017-01-03T10:23:43.519Z,-0.13
2017-01-03T10:24:43.519Z,-0.1
2017-01-03T10:25:43.515Z,-0.06
2017-01-03T10:26:43.510Z,-0.06
2017-01-03T10:27:43.091Z,0.06
2017-01-03T10:28:43.498Z,0.11
2017-01-03T10:29:43.079Z,0.12
2017-01-03T10:30:43.082Z,0.27
2017-01-03T10:31:43.487Z,0.23
2017-01-03T10:32:43.483Z,0.3
2017-01-03T10:33:43.471Z,0.33
2017-01-03T10:34:43.471Z,0.39
2017-01-03T10:35:43.054Z,0.47
2017-01-03T10:36:43.467Z,0.45
2017-01-03T10:37:43.054Z,0.52
2017-01-03T10:38:43.074Z,0.58
2017-01-03T10:39:43.042Z,0.61
2017-01-03T10:40:43.041Z,0.71
2017-01-03T10:41:43.443Z,0.63
2017-01-03T10:42:43.447Z,0.58
2017-01-03T10:43:43.442Z,0.7
2017-01-03T10:44:43.435Z,0.7
2017-01-03T10:45:43.019Z,0.73
2017-01-03T10:46:43.007Z,0.78
2017-01-03T10:47:43.008Z,0.76
2017-01-03T10:48:43.419Z,0.92
2017-01-03T10:49:43.414Z,0.91
2017-01-03T10:50:43.419Z,1
2017-01-03T10:51:42.991Z,1.03
2017-01-03T10:52:42.983Z,1.06
2017-01-03T10:53:42.987Z,1.22
2017-01-03T10:54:42.979Z,1.24
2017-01-03T10:55:42.990Z,1.28
2017-01-03T10:56:43.392Z,1.38
2017-01-03T10:57:42.976Z,1.43
2017-01-03T10:58:43.376Z,1.57
2017-01-03T10:59:42.964Z,1.63
2017-01-03T11:00:42.952Z,1.81
2017-01-03T11:01:43.364Z,1.97
2017-01-03T11:02:42.949Z,2.12
2017-01-03T11:03:42.949Z,2.36
2017-01-03T11:04:43.353Z,2.43
2017-01-03T11:05:42.938Z,2.52
2017-01-03T11:06:42.933Z,2.82
2017-01-03T11:07:43.349Z,2.9
2017-01-03T11:08:43.338Z,3
2017-01-03T11:09:43.342Z,3.18
2017-01-03T11:10:42.918Z,3.33
2017-01-03T11:11:43.322Z,3.41
2017-01-03T11:12:42.502Z,3.59
2017-01-03T11:13:43.331Z,3.71
2017-01-03T11:14:42.903Z,4.02
2017-01-03T11:15:43.319Z,4.04
2017-01-03T11:16:42.487Z,4.25
2017-01-03T11:17:42.899Z,4.39
2017-01-03T11:18:42.891Z,4.36
2017-01-03T11:19:43.307Z,4.48
2017-01-03T11:20:43.320Z,4.5
2017-01-03T11:21:42.476Z,4.49
2017-01-03T11:22:43.284Z,4.52
2017-01-03T11:23:43.284Z,4.48
2017-01-03T11:24:43.284Z,4.48
2017-01-03T11:25:42.864Z,4.39
2017-01-03T11:26:43.280Z,4.27
2017-01-03T11:27:42.861Z,4.12
2017-01-03T11:28:43.273Z,4
2017-01-03T11:29:43.261Z,3.88
2017-01-03T11:30:43.265Z,3.73
2017-01-03T11:31:43.257Z,3.49
2017-01-03T11:32:42.845Z,3.4
2017-01-03T11:33:42.834Z,3.3
2017-01-03T11:34:43.246Z,3.06
2017-01-03T11:35:43.242Z,3.01
2017-01-03T11:36:43.242Z,2.85
2017-01-03T11:37:43.242Z,2.64
2017-01-03T11:38:42.826Z,2.55
2017-01-03T11:39:43.262Z,2.52
2017-01-03T11:40:42.818Z,2.39
2017-01-03T11:41:43.223Z,2.3
2017-01-03T11:42:42.810Z,2.28
2017-01-03T11:43:43.218Z,2.28
2017-01-03T11:44:42.799Z,2.21
2017-01-03T11:45:43.207Z,2.16
2017-01-03T11:46:42.827Z,2.19
2017-01-03T11:47:42.799Z,2.04
2017-01-03T11:48:43.203Z,2.12
2017-01-03T11:49:42.788Z,2.04
2017-01-03T11:50:43.195Z,1.92
2017-01-03T11:51:43.192Z,1.93
2017-01-03T11:52:42.774Z,1.95
2017-01-03T11:53:42.768Z,1.95
2017-01-03T11:54:43.188Z,2.04
2017-01-03T11:55:43.176Z,1.98
2017-01-03T11:56:42.765Z,1.85
2017-01-03T11:57:42.765Z,1.95
2017-01-03T11:58:43.173Z,1.93
2017-01-03T11:59:42.753Z,1.97
2017-01-03T12:00:43.157Z,1.97
2017-01-03T12:01:42.745Z,2.04
2017-01-03T12:02:42.753Z,2
2017-01-03T12:03:43.154Z,2
2017-01-03T12:04:43.150Z,2.12
2017-01-03T12:05:42.738Z,2.04
2017-01-03T12:06:42.741Z,2.04
2017-01-03T12:07:42.725Z,2.07
2017-01-03T12:08:42.722Z,2.08
2017-01-03T12:09:42.726Z,2.12
2017-01-03T12:10:43.130Z,2.05
2017-01-03T12:11:42.723Z,2.05
2017-01-03T12:12:42.714Z,2.04
2017-01-03T12:13:42.711Z,2.05
2017-01-03T12:14:43.131Z,2
2017-01-03T12:15:43.115Z,2.08
2017-01-03T12:16:42.695Z,2.01
2017-01-03T12:17:43.112Z,2.05
2017-01-03T12:18:42.695Z,1.98
2017-01-03T12:19:43.092Z,2.01
2017-01-03T12:20:43.088Z,2.05
2017-01-03T12:21:43.100Z,2.05
2017-01-03T12:22:43.092Z,2.05
2017-01-03T12:23:42.673Z,2.04
2017-01-03T12:24:43.093Z,2.07
2017-01-03T12:25:42.672Z,2
2017-01-03T12:26:43.076Z,2.04
2017-01-03T12:27:43.077Z,2.08
2017-01-03T12:28:43.069Z,2.05
2017-01-03T12:29:43.069Z,2.08
2017-01-03T12:30:43.064Z,2.04
2017-01-03T12:31:43.065Z,2.07
2017-01-03T12:32:43.061Z,1.97
2017-01-03T12:33:42.646Z,1.86
2017-01-03T12:34:43.041Z,1.97
2017-01-03T12:35:42.634Z,1.88
2017-01-03T12:36:43.046Z,1.85
2017-01-03T12:37:43.041Z,1.95
2017-01-03T12:38:43.034Z,1.92
2017-01-03T12:39:42.625Z,1.84
2017-01-03T12:40:43.022Z,1.89
2017-01-03T12:41:43.030Z,2.01
2017-01-03T12:42:42.610Z,2.03
2017-01-03T12:43:42.602Z,2.08
2017-01-03T12:44:43.014Z,2.12
2017-01-03T12:45:43.018Z,2.01
2017-01-03T12:46:43.010Z,2.12
2017-01-03T12:47:43.007Z,2.18
2017-01-03T12:48:42.591Z,2.18
2017-01-03T12:49:42.583Z,2.16
2017-01-03T12:50:42.995Z,2.16
2017-01-03T12:51:42.579Z,2.18
2017-01-03T12:52:42.987Z,2.16
2017-01-03T12:53:42.571Z,2.16
2017-01-03T12:54:42.572Z,2.26
2017-01-03T12:55:42.571Z,2.32
2017-01-03T12:56:42.559Z,2.36
2017-01-03T12:57:42.560Z,2.36
2017-01-03T12:58:42.968Z,2.55
2017-01-03T12:59:42.965Z,2.54
2017-01-03T13:00:42.968Z,2.64
2017-01-03T13:01:42.960Z,2.76
2017-01-03T13:02:42.952Z,2.82
2017-01-03T13:03:42.548Z,2.88
2017-01-03T13:04:42.948Z,2.82
2017-01-03T13:05:42.948Z,2.9
2017-01-03T13:06:42.524Z,3
2017-01-03T13:07:42.937Z,3.13